S.caterina — ILVM2 — position and weather

sailwx.info

Track history (hours):
 
Tides and Currents Weather Stations Pressure Air Temp Water Temp Dewpoint Dewpoint Depression Visibility Wind Speed Wind Dir Waves Ship Positions

S.caterina

Last reported at 2017-Nov-17 06:53 UTC. Time now 2017-Nov-19 18:11 UTC.
Position N 40°18' E 017°34'.

; draft 2 m.

Type: Fishing. MMSI: 247129450.

Date/timePositionNaut miles runAvg speedWind from/ knotsBaromVisibWave heightAir tempDewpointWater temp
2017-Nov-17 06:53N 40°18' E 017°34'2 5.2
2017-Nov-17 06:30N 40°16' E 017°34'0 0.8
2017-Nov-17 06:00N 40°16' E 017°34'  
2017-Nov-14 12:35N 40°18' E 017°34'0 5.3
2017-Nov-14 12:30N 40°17' E 017°34'4 8.6
2017-Nov-14 12:00N 40°14' E 017°37'2 3.3
2017-Nov-14 11:30N 40°12' E 017°38'1 2.8
2017-Nov-14 11:00N 40°12' E 017°40'1 2.9
2017-Nov-14 10:30N 40°11' E 017°41'1 2.8
2017-Nov-14 10:00N 40°10' E 017°43'2 2.8
2017-Nov-14 09:25N 40°09' E 017°45'1 0.3
2017-Nov-14 06:36N 40°08' E 017°45'2 2.8
2017-Nov-14 05:43N 40°10' E 017°43'1 2.8
2017-Nov-14 05:28N 40°10' E 017°42'2 2.7
2017-Nov-14 04:48N 40°11' E 017°40'1 2.8
2017-Nov-14 04:30N 40°12' E 017°39'3 6.4
2017-Nov-14 04:00N 40°14' E 017°36'4 7.9
2017-Nov-14 03:30N 40°18' E 017°34'  
2017-Nov-11 05:53N 40°18' E 017°34'0 0.0
2017-Nov-10 12:41N 40°18' E 017°34'0 1.4
2017-Nov-10 12:30N 40°18' E 017°34'3 6.4
2017-Nov-10 12:00N 40°15' E 017°36'3 6.5
2017-Nov-10 11:30N 40°12' E 017°39'1 1.5
2017-Nov-10 11:01N 40°12' E 017°39'1 2.8
2017-Nov-10 10:30N 40°11' E 017°41'1 2.8
2017-Nov-10 09:59N 40°11' E 017°43'1 2.9
2017-Nov-10 09:28N 40°09' E 017°44'1 0.3
2017-Nov-10 05:57N 40°09' E 017°45'1 2.8
2017-Nov-10 05:28N 40°09' E 017°43'1 2.8
2017-Nov-10 05:00N 40°10' E 017°42'1 2.8
2017-Nov-10 04:30N 40°11' E 017°41'1 2.7
2017-Nov-10 04:00N 40°12' E 017°39'4 7.5
2017-Nov-10 03:31N 40°15' E 017°36'3 0.2
2017-Nov-09 12:43N 40°18' E 017°34'1 2.4
2017-Nov-09 12:30N 40°17' E 017°34'4 7.2
2017-Nov-09 12:00N 40°15' E 017°37'2 5.0
2017-Nov-09 11:31N 40°12' E 017°39'1 1.8
2017-Nov-09 11:01N 40°12' E 017°40'2 2.9
2017-Nov-09 10:23N 40°11' E 017°42'1 2.8
2017-Nov-09 09:55N 40°10' E 017°43'1 2.9
2017-Nov-09 09:30N 40°09' E 017°44'1 2.8
2017-Nov-09 09:00N 40°08' E 017°45'1 0.7
2017-Nov-09 06:57N 40°07' E 017°46'1 2.8
2017-Nov-09 06:29N 40°08' E 017°45'2 2.8
2017-Nov-09 05:55N 40°09' E 017°44'1 2.8
2017-Nov-09 05:30N 40°10' E 017°43'1 2.8
2017-Nov-09 05:00N 40°11' E 017°41'1 2.8
2017-Nov-09 04:30N 40°12' E 017°40'3 5.7
2017-Nov-09 04:00N 40°13' E 017°37'4 8.2
2017-Nov-09 03:30N 40°17' E 017°34'  
Track history (hours):
 
Tides and Currents Weather Stations Pressure Air Temp Water Temp Dewpoint Dewpoint Depression Visibility Wind Speed Wind Dir Waves Ship Positions

S.caterina

Last reported at 2017-Nov-17 06:53 UTC. Time now 2017-Nov-19 18:11 UTC.
Position N 40°18' E 017°34'.

; draft 2 m.

Type: Fishing. MMSI: 247129450.

Date/timePositionNaut miles runAvg speedWind from/ knotsBaromVisibWave heightAir tempDewpointWater temp
2017-Nov-17 06:53N 40°18' E 017°34'2 5.2
2017-Nov-17 06:30N 40°16' E 017°34'0 0.8
2017-Nov-17 06:00N 40°16' E 017°34'  
2017-Nov-14 12:35N 40°18' E 017°34'0 5.3
2017-Nov-14 12:30N 40°17' E 017°34'4 8.6
2017-Nov-14 12:00N 40°14' E 017°37'2 3.3
2017-Nov-14 11:30N 40°12' E 017°38'1 2.8
2017-Nov-14 11:00N 40°12' E 017°40'1 2.9
2017-Nov-14 10:30N 40°11' E 017°41'1 2.8
2017-Nov-14 10:00N 40°10' E 017°43'2 2.8
2017-Nov-14 09:25N 40°09' E 017°45'1 0.3
2017-Nov-14 06:36N 40°08' E 017°45'2 2.8
2017-Nov-14 05:43N 40°10' E 017°43'1 2.8
2017-Nov-14 05:28N 40°10' E 017°42'2 2.7
2017-Nov-14 04:48N 40°11' E 017°40'1 2.8
2017-Nov-14 04:30N 40°12' E 017°39'3 6.4
2017-Nov-14 04:00N 40°14' E 017°36'4 7.9
2017-Nov-14 03:30N 40°18' E 017°34'  
2017-Nov-11 05:53N 40°18' E 017°34'0 0.0
2017-Nov-10 12:41N 40°18' E 017°34'0 1.4
2017-Nov-10 12:30N 40°18' E 017°34'3 6.4
2017-Nov-10 12:00N 40°15' E 017°36'3 6.5
2017-Nov-10 11:30N 40°12' E 017°39'1 1.5
2017-Nov-10 11:01N 40°12' E 017°39'1 2.8
2017-Nov-10 10:30N 40°11' E 017°41'1 2.8
2017-Nov-10 09:59N 40°11' E 017°43'1 2.9
2017-Nov-10 09:28N 40°09' E 017°44'1 0.3
2017-Nov-10 05:57N 40°09' E 017°45'1 2.8
2017-Nov-10 05:28N 40°09' E 017°43'1 2.8
2017-Nov-10 05:00N 40°10' E 017°42'1 2.8
2017-Nov-10 04:30N 40°11' E 017°41'1 2.7
2017-Nov-10 04:00N 40°12' E 017°39'4 7.5
2017-Nov-10 03:31N 40°15' E 017°36'3 0.2
2017-Nov-09 12:43N 40°18' E 017°34'1 2.4
2017-Nov-09 12:30N 40°17' E 017°34'4 7.2
2017-Nov-09 12:00N 40°15' E 017°37'2 5.0
2017-Nov-09 11:31N 40°12' E 017°39'1 1.8
2017-Nov-09 11:01N 40°12' E 017°40'2 2.9
2017-Nov-09 10:23N 40°11' E 017°42'1 2.8
2017-Nov-09 09:55N 40°10' E 017°43'1 2.9
2017-Nov-09 09:30N 40°09' E 017°44'1 2.8
2017-Nov-09 09:00N 40°08' E 017°45'1 0.7
2017-Nov-09 06:57N 40°07' E 017°46'1 2.8
2017-Nov-09 06:29N 40°08' E 017°45'2 2.8
2017-Nov-09 05:55N 40°09' E 017°44'1 2.8
2017-Nov-09 05:30N 40°10' E 017°43'1 2.8
2017-Nov-09 05:00N 40°11' E 017°41'1 2.8
2017-Nov-09 04:30N 40°12' E 017°40'3 5.7
2017-Nov-09 04:00N 40°13' E 017°37'4 8.2
2017-Nov-09 03:30N 40°17' E 017°34'  

Dump ship's entire track history